Tiempo atmosférico en la estación meteorológica de Asturias Aeropuerto, Asturias (127 m.)

Fecha
DESCASC
Temp. máxima en grados centígrados (hora)
DESCASC
Temp. mínima en grados centígrados (hora)
DESCASC
Temp. media en grados centígrados
DESCASC
Racha de viento máxima en m/sg (hora)
DESCASC
Velocidad máxima media en intervalos de 10 minutos(hora)
DESCASC
Precipitaciones diarias en mm
DESCASC
Precipitaciones de 00:00 a 06:00 en mm
DESCASC
Precipitaciones de 06:00 a 12:00 en mm
DESCASC
Precipitaciones de 12:00 a 18:00 en mm
DESCASC
Precipitaciones de 18:00 a 24:00 en mm
DESCASC
17-08-2017 25 (16:30) 15.8 (05:10) 20.4 9.17 (09:40) 3.61 (07:50) 0 0 0 0 0
16-08-2017 23.8 (17:50) 15.5 (07:30) 19.6 6.11 (07:40) 2.78 (14:30) 0 0 0 0 0
15-08-2017 21.9 (16:00) 18 (00:00) 19.9 6.67 (07:50) 3.89 (12:20) 0 0 0 0 0
14-08-2017 23.1 (13:40) 16.8 (08:00) 19.9 8.33 (16:20) 5.28 (18:10) 0 0 0 0 0
13-08-2017 23 (15:30) 11.8 (00:00) 17.4 10.28 (13:30) 6.39 (19:00) 0 0 0 0 0
12-08-2017 23.1 (15:10) 13.3 (00:00) 18.2 7.78 (16:10) 3.61 (22:50) 0 0 0 0 0
11-08-2017 21.6 (14:00) 12.2 (00:00) 16.9 8.89 (07:20) 4.17 (08:10) 0 0 0 0 0
10-08-2017 21.3 (16:00) 12.6 (00:00) 16.9 8.33 (09:40) 4.17 (04:20) 0.1 0.1 0 0 0
09-08-2017 20.3 (16:50) 13.6 (00:00) 16.9 12.78 (13:40) 5.83 (03:10) 5.2 4.8 0.2 0.2 0
08-08-2017 21.1 (17:10) 13.1 (00:00) 17.1 8.89 (12:30) 5.83 (16:20) 0.9 0 0.9 0 0
07-08-2017 17.9 (00:00) 14.8 (00:00) 16.3 8.33 (20:50) 3.89 (22:30) 8 0 2.8 4.6 0.6
06-08-2017 21.6 (15:50) 15.4 (00:00) 18.5 10.28 (11:00) 5.56 (10:50) 0.2 0.2 0 0 0
05-08-2017 19.5 (00:00) 15.6 (00:00) 17.6 6.67 (19:50) 3.61 (23:00) 10 6.5 2.2 0.1 1.2
04-08-2017 24.4 (13:10) 16.8 (00:00) 20.6 7.22 (07:10) 3.61 (05:50) 0.3 0 0 0 0.3
03-08-2017 22.7 (15:30) 17.2 (00:00) 20 7.22 (10:40) 4.17 (10:50) 0 0 0 0 0
02-08-2017 26.4 (18:10) 14.1 (00:00) 20.3 7.22 (08:30) 4.44 (08:30) 0 0 0 0 0
01-08-2017 21.1 (17:30) 14.8 (00:00) 18 4.72 (12:40) 3.33 (22:10) 4.6 2.7 1.9 0 0
31-07-2017 19.8 (13:10) 15.3 (00:00) 17.5 9.17 (07:10) 3.61 (07:00) 1.4 1.4 0 0 0
30-07-2017 23.1 (15:30) 17.8 (00:00) 20.4 8.33 (05:40) 5 (05:40) 0 0 0 0 0
29-07-2017 27.8 (18:00) 18.3 (00:00) 23 8.33 (09:30) 4.44 (04:20) -- 0 -- 0 0
28-07-2017 22.6 (15:40) 16.7 (00:00) 19.7 6.11 (07:40) 3.33 (22:20) 0 0 0 0 0
27-07-2017 23.3 (11:10) 14.7 (00:00) 19 8.33 (09:40) 4.44 (14:40) 0 0 0 0 0
26-07-2017 21.9 (16:50) 13.6 (00:00) 17.8 6.11 (13:50) 3.89 (13:40) 0 0 0 0 0
25-07-2017 -- (--) -- (--) -- -- (--) -- (--) -- -- -- 0 0
24-07-2017 19.4 (12:30) 16.1 (00:00) 17.8 11.67 (00:30) 8.33 (00:30) 5.3 1.3 2.9 1.1 0
23-07-2017 23.5 (12:40) 14.3 (00:00) 18.9 10.83 (22:20) 7.22 (22:30) 0.1 0 0 0 0.1
22-07-2017 19.7 (16:10) 15.6 (00:00) 17.7 10.28 (12:00) 6.67 (11:50) 0.1 0 0.1 0 0

Gráficas

Temp. máximas Temp. mínimas Temp. medias Precipitaciones Rachas de viento máximas Velocidades máximas media en intervalos de 10 minutos

Datos horarios

Fecha y hora oficial Temperatura (ºC) Velocidad del viento (km/h) Dirección del viento Racha (km/h) Dirección de racha Precipitación (mm) Presión (hPa) Tendencia (hPa) Humedad (%)
2017-08-20 23:00:00 16.9 15 Sudeste 22 Este 0 1005.9 -0.1 88
2017-08-20 22:00:00 18.1 11 Este 22 Este 0 1006.1 -0.5 83
2017-08-20 21:00:00 19.7 16 Este 32 Este 0 1005.8 -1.2 75
2017-08-20 20:00:00 21.3 18 Este 33 Este 0 1006 -1.5 69
2017-08-20 19:00:00 22.3 16 Este 42 Este 0 1006.6 -1.4 64
2017-08-20 18:00:00 22.6 20 Este 45 Este 0 1007 -1.2 62
2017-08-20 17:00:00 23.1 23 Este 42 Este 0 1007.5 -0.8 58
2017-08-20 16:00:00 23.3 24 Este 42 Este 0 1008 -0.1 55
2017-08-20 15:00:00 23.6 14 Este 37 Este 0 1008.2 -0.3 54
2017-08-20 14:00:00 22.9 17 Este 35 Este 0 1008.3 -0.7 56
2017-08-20 13:00:00 23.7 16 Este 33 Este 0 1008.1 -1.2 55
2017-08-20 12:00:00 22.3 23 Sudeste 35 Sudeste 0 1008.5 -0.6 59
2017-08-20 11:00:00 20.5 18 Sudeste 28 Sudeste 0 1009 -0.2 68
2017-08-20 10:00:00 19.4 12 Sudeste 21 Este 0 1009.3 0.3 78
2017-08-20 09:00:00 17.3 8 Sudeste 17 Sudeste 0 1009.1 0.3 87
2017-08-20 08:00:00 14.1 13 Sudeste 21 Sudeste 0 1009.2 0.2 94
2017-08-20 07:00:00 13.6 5 Sudeste 8 Sudeste 0 1009 -0.3 93
2017-08-20 06:00:00 14.1 6 Sudeste 15 Sudeste 0 1008.8 -0.6 94
2017-08-20 05:00:00 14.4 12 Sudeste 17 Sudeste 0 1009 -0.9 94
2017-08-20 04:00:00 14.3 12 Sudeste 13 Sudeste 0 1009.3 -1 93
2017-08-20 03:00:00 15 10 Sudeste 17 Este 0 1009.4 -1 90
2017-08-20 02:00:00 15.5 15 Sudeste 18 Sudeste 0 1009.9 -0.6 91
2017-08-20 01:00:00 15.7 12 Sudeste 18 Sudeste 0 1010.3 0.2 89
2017-08-20 00:00:00 17.7 10 Este 18 Este 0 1010.4 0.9 84
2017-08-19 23:00:00 18 11 Este 21 Este 0 1010.5 1.3 82
2017-08-19 22:00:00 18.3 13 Este 24 Este 0 1010.1 1 78
2017-08-19 21:00:00 18.7 6 Este 22 Este 0 1009.5 0.6 78
2017-08-19 20:00:00 19.4 12 Este 24 Este 0 1009.2 0.6 75
2017-08-19 19:00:00 19.3 14 Este 28 Este 0 1009.1 0.3 75
2017-08-19 18:00:00 20.7 10 Este 35 Este 0 1008.9 0 69
2017-08-19 17:00:00 20.6 14 Este 32 Este 0 1008.6 -0.3 70
2017-08-19 16:00:00 20.9 9 Este 24 Este 0 1008.8 -0.5 71
2017-08-19 15:00:00 20 14 Este 24 Este 0 1008.9 -0.3 72
2017-08-19 14:00:00 21.3 14 Este 28 Este 0 1008.9 0.1 69
2017-08-19 13:00:00 19.3 11 Este 26 Este 0 1009.3 0.6 73
2017-08-19 12:00:00 18.8 6 Este 24 Este 0 1009.2 0.6 78
2017-08-19 11:00:00 18.6 14 Este 24 Este 0 1008.8 0.6 77
2017-08-19 10:00:00 18.5 12 Este 24 Este 0 1008.7 0.9 77
2017-08-19 09:00:00 18.4 8 Este 24 Este 0 1008.6 0.9 79
2017-08-19 08:00:00 17.9 9 Este 24 Este 0 1008.2 0.6 80
2017-08-19 07:00:00 18 12 Este 21 Este 0 1007.8 0.1 80
2017-08-19 06:00:00 18.1 4 Este 18 Nordeste 0 1007.7 -0.2 81
2017-08-19 05:00:00 18 2 Este 22 Este 0 1007.6 -0.7 82
2017-08-19 04:00:00 18 12 Este 22 Este 0 1007.7 -0.9 81
2017-08-19 03:00:00 18.4 5 Este 18 Norte 0 1007.9 -0.6 82
2017-08-19 02:00:00 18.6 3 Nordeste 15 Nordeste 0 1008.3 -0.2 83
2017-08-19 01:00:00 18.8 0 Calma 11 Nordeste 0 1008.6 0.5 84
2017-08-19 00:00:00 18.9 0 Calma 13 Nordeste 0 1008.5 0.7 83
2017-08-18 23:00:00 19.1 3 Nordeste 13 Nordeste 0 1008.5 1 85
2017-08-18 22:00:00 19.3 0 Calma 11 Este 0 1008.1 0.9 84
2017-08-18 21:00:00 19.5 3 Nordeste 13 Nordeste 0 1007.8 1.4 83
2017-08-18 20:00:00 19.7 0 Calma 13 Oeste 0 1007.5 0.8 87
2017-08-18 19:00:00 20.5 9 Noroeste 17 Noroeste 0 1007.2 -0.1 84
2017-08-18 18:00:00 22.3 7 Norte 17 Noroeste 0 1006.4 -1 75
2017-08-18 17:00:00 22 9 Noroeste 17 Noroeste 0 1006.7 -0.2 75
2017-08-18 16:00:00 22.2 8 Noroeste 17 Noroeste 0 1007.3 0.7 77
2017-08-18 15:00:00 20.5 4 Noroeste 17 Oeste 0 1007.4 0.8 84
2017-08-18 14:00:00 21.3 10 Noroeste 18 Noroeste 0 1006.9 0.7 81
2017-08-18 13:00:00 21.9 6 Noroeste 15 Norte 0 1006.6 1.1 78
2017-08-18 12:00:00 21.1 2 Noroeste 8 Noroeste 0 1006.6 1.5 83
2017-08-18 11:00:00 19.7 3 Oeste 8 Noroeste 0 1006.2 1.2 89
2017-08-18 10:00:00 19.4 0 Calma 8 Sudoeste 0 1005.5 0.7 90
2017-08-18 09:00:00 18.5 3 Sudoeste 11 Sudoeste 0.2 1005.1 1 91
2017-08-18 08:00:00 18.8 5 Sudoeste 28 Oeste 0 1005 1.3 90
2017-08-18 07:00:00 18.4 15 Oeste 30 Oeste 0 1004.8 0.9 92
2017-08-18 06:00:00 18.3 9 Sudoeste 18 Sudoeste 0 1004.1 -0.2 88
2017-08-18 05:00:00 18.5 10 Sudoeste 18 Sudoeste 0 1003.7 -1.1 87
2017-08-18 04:00:00 18.5 9 Sudoeste 21 Sudoeste 0 1003.9 -1.4 86
2017-08-18 03:00:00 18.9 11 Sudoeste 21 Sudoeste 0 1004.3 -1.5 84
2017-08-18 02:00:00 19.5 9 Sur 21 Sur 0 1004.8 -1.2 80
2017-08-18 01:00:00 20.3 14 Sur 21 Sur 0 1005.3 -0.3 76
2017-08-18 00:00:00 20.5 7 Sur 13 Sur 0 1005.8 0.6 76
2017-08-17 23:00:00 20.4 3 Sur 8 Sudoeste 0 1006 1.2 74
2017-08-17 22:00:00 20.6 0 Calma 5 Noroeste 0 1005.6 1.1 79
2017-08-17 21:00:00 21 0 Calma 5 Noroeste 0 1005.2 0.9 79
2017-08-17 20:00:00 22 0 Calma 13 Norte 0 1004.8 0.2 76
2017-08-17 19:00:00 23.3 7 Norte 21 Norte 0 1004.5 -0.5 68
2017-08-17 18:00:00 24.2 8 Nordeste 21 Norte 0 1004.3 -1.1 63
2017-08-17 17:00:00 24.5 8 Norte 21 Norte 0 1004.6 -1.4 60
2017-08-17 16:00:00 24.2 10 Norte 22 Norte 0 1005 -1.1 60
2017-08-17 15:00:00 24.2 4 Nordeste 18 Norte 0 1005.4 -1 62
2017-08-17 14:00:00 23.7 9 Norte 17 Norte 0 1006 -0.4 65
2017-08-17 13:00:00 24.4 8 Noroeste 15 Noroeste 0 1006.1 -0.4 64
2017-08-17 12:00:00 22.1 4 Sur 18 Sudoeste 0 1006.4 -0.3 71
2017-08-17 11:00:00 19.4 10 Sur 18 Sudoeste 0 1006.4 0 78
2017-08-17 10:00:00 17.8 8 Sudoeste 33 Sur 0 1006.5 0.6 83
2017-08-17 09:00:00 17.3 10 Sudoeste 15 Sudoeste 0 1006.7 1.2 85
2017-08-17 08:00:00 16.4 10 Sudoeste 18 Sur 0 1006.4 0.8 88
2017-08-17 07:00:00 16.1 10 Sudoeste 17 Sudoeste 0 1005.9 0 88
2017-08-17 06:00:00 16 10 Sudoeste 17 Sudoeste 0 1005.5 -0.7 88
2017-08-17 05:00:00 16.1 6 Sudoeste 11 Sur 0 1005.6 -0.7 85
2017-08-17 04:00:00 16.6 8 Sudoeste 15 Sudoeste 0 1005.9 -0.6 85
2017-08-17 03:00:00 16.3 7 Sudoeste 15 Sudoeste 0 1006.2 -0.7 86
2017-08-17 02:00:00 16.4 6 Sudoeste 11 Sudoeste 0 1006.3 -1 84
2017-08-17 01:00:00 16.8 0 Calma 8 Sudoeste 0 1006.5 -1.1 83
2017-08-17 00:00:00 17.3 4 Sudoeste 8 Sudoeste 0 1006.9 -0.6 81
2017-08-16 23:00:00 17.6 4 Sur 8 Sur 0 1007.3 -0.1 81
2017-08-16 22:00:00 18.3 3 Sur 15 Sur 0 1007.6 0.5 78
2017-08-16 21:00:00 20.9 0 Calma 5 Nordeste 0 1007.5 0.6 68
2017-08-16 20:00:00 21.9 2 Norte 11 Norte 0 1007.4 0.4 60
2017-08-16 19:00:00 22.8 5 Norte 15 Norte 0 1007.1 -0.2 56
2017-08-16 18:00:00 22.8 4 Norte 13 Norte 0 1006.9 -0.6 59
2017-08-16 17:00:00 22.3 6 Norte 15 Norte 0 1007 -0.2 62
2017-08-16 16:00:00 22.3 6 Norte 17 Noroeste 0 1007.3 0.2 66
2017-08-16 15:00:00 22 9 Norte 17 Norte 0 1007.5 0 68
2017-08-16 14:00:00 21.6 9 Norte 18 Norte 0 1007.2 -0.6 73
2017-08-16 13:00:00 21.3 5 Norte 15 Norte 0 1007.1 -0.1 72
2017-08-16 12:00:00 21 5 Noroeste 15 Noroeste 0 1007.5 0.5 77
2017-08-16 11:00:00 19.9 8 Noroeste 15 Noroeste 0 1007.8 0.9 81
2017-08-16 10:00:00 19.7 5 Sudoeste 22 Sudoeste 0 1007.2 0.9 81
2017-08-16 09:00:00 17.3 3 Sudoeste 8 Sudoeste 0 1007 0.8 91
2017-08-16 08:00:00 15.8 5 Sudoeste 22 Sur 0 1006.9 0.7 93
2017-08-16 07:00:00 15.9 5 Sudoeste 8 Sudoeste 0 1006.3 0 93
2017-08-16 06:00:00 16.6 4 Sudoeste 8 Sudoeste 0 1006.2 -0.3 90
2017-08-16 05:00:00 17.8 0 Calma 5 Sudoeste 0 1006.2 -0.4 85
2017-08-16 04:00:00 17.8 3 Sudoeste 5 Sudoeste 0 1006.3 -0.6 86
2017-08-16 03:00:00 17.9 3 Sudoeste 8 Sudoeste 0 1006.5 -0.7 86
2017-08-16 02:00:00 17.9 3 Sudoeste 8 Sudoeste 0 1006.6 -0.7 87
2017-08-16 01:00:00 18.1 0 Calma 4 Oeste 0 1006.9 0.1 86
2017-08-16 00:00:00 18.2 0 Calma 5 Oeste 0 1007.2 0.6 87
2017-08-15 23:00:00 18.2 3 Oeste 11 Noroeste 0 1007.3 1.2 88
2017-08-15 22:00:00 18.2 5 Oeste 13 Oeste 0 1006.8 0.9 89
2017-08-15 21:00:00 18.6 3 Oeste 11 Noroeste 0 1006.6 0.6 88
2017-08-15 20:00:00 19.1 0 Calma 13 Noroeste 0 1006.1 0.3 86
2017-08-15 19:00:00 19.4 6 Noroeste 15 Noroeste 0 1005.9 0.1 85
2017-08-15 18:00:00 20.4 8 Noroeste 22 Oeste 0 1006 0.3 82
2017-08-15 17:00:00 21.6 14 Noroeste 18 Noroeste 0 1005.8 0.4 80
2017-08-15 16:00:00 21.7 12 Noroeste 21 Oeste 0 1005.8 0.5 79
2017-08-15 15:00:00 20.9 10 Noroeste 18 Noroeste 0 1005.7 0.5 80
2017-08-15 14:00:00 20.8 6 Noroeste 18 Noroeste 0 1005.4 0.8 85
2017-08-15 13:00:00 20.8 14 Noroeste 21 Oeste 0 1005.3 1.3 81
2017-08-15 12:00:00 19.5 8 Noroeste 17 Oeste 0 1005.2 1.6 89
2017-08-15 11:00:00 18.8 9 Oeste 18 Oeste 0 1004.6 1.3 92
2017-08-15 10:00:00 19.1 10 Noroeste 18 Oeste 0 1004 1 89
2017-08-15 09:00:00 18.7 4 Oeste 8 Oeste 0 1003.6 0.9 91
2017-08-15 08:00:00 18.4 2 Oeste 24 Sudoeste 0 1003.3 0.6 93
2017-08-15 07:00:00 18.3 6 Oeste 15 Oeste 0 1003 0.3 92
2017-08-15 06:00:00 18.2 5 Oeste 11 Oeste 0 1002.7 0.3 93
2017-08-15 05:00:00 18.4 5 Oeste 18 Noroeste 0 1002.7 0.1 94
2017-08-15 04:00:00 18.5 6 Oeste 15 Oeste 0 1002.7 0.1 94
2017-08-15 03:00:00 18.7 3 Oeste 13 Noroeste 0 1002.4 -0.1 93
2017-08-15 02:00:00 18.7 6 Oeste 17 Oeste 0 1002.6 0.4 92
2017-08-15 01:00:00 18.8 3 Oeste 15 Sudoeste 0 1002.6 0.9 91
2017-08-15 00:00:00 18.6 8 Oeste 21 Oeste 0 1002.5 1.4 92
2017-08-14 23:00:00 18.9 13 Oeste 30 Oeste 0 1002.2 1.5 90
2017-08-14 22:00:00 19.2 17 Oeste 30 Oeste 0 1001.7 1.2 87
2017-08-14 21:00:00 19.2 13 Oeste 24 Oeste 0 1001.1 1.4 86
2017-08-14 20:00:00 19.9 8 Oeste 22 Oeste 0 1000.7 1.7 82
2017-08-14 19:00:00 20.5 16 Oeste 30 Oeste 0 1000.5 1.9 77
2017-08-14 18:00:00 21.2 17 Oeste 28 Noroeste 0 999.7 1.5 79
2017-08-14 17:00:00 19.8 10 Oeste 30 Noroeste 0 999 1.1 85
2017-08-14 16:00:00 19.2 15 Oeste 26 Oeste 0 998.6 0.6 83
2017-08-14 15:00:00 20.8 0 Calma 15 Sur 0 998.2 0.1 80
2017-08-14 14:00:00 22.7 4 Noroeste 11 Noroeste 0 997.9 -0.1 73
2017-08-14 13:00:00 21.7 4 Norte 11 Noroeste 0 998 0.1 76
2017-08-14 12:00:00 20.5 3 Noroeste 11 Oeste 0 998.1 0.2 80
2017-08-14 11:00:00 21.1 2 Oeste 8 Noroeste 0 998 0.4 79
2017-08-14 10:00:00 20 3 Sur 13 Sudoeste 0 997.9 0.5 82
2017-08-14 09:00:00 18.2 5 Sudoeste 11 Sur 0 997.9 -0.1 90
2017-08-14 08:00:00 16.9 0 Calma 18 Sudeste 0 997.6 -1 91
2017-08-14 07:00:00 17.6 13 Sur 21 Sudeste 0 997.4 -1.8 90
2017-08-14 06:00:00 18.2 15 Sudeste 24 Sudeste 0 998 -1.8 88
2017-08-14 05:00:00 18.3 14 Sudeste 21 Este 0 998.6 -2 87
2017-08-14 04:00:00 18.4 12 Sudeste 21 Sudeste 0 999.2 -2 86
2017-08-14 03:00:00 18.6 16 Sudeste 24 Este 0 999.8 -2 85
2017-08-14 02:00:00 18.7 13 Sudeste 22 Este 0 1000.6 -1.7 85
2017-08-14 01:00:00 19 15 Sudeste 22 Este 0 1001.2 -1 85
2017-08-14 00:00:00 18.9 14 Sudeste 24 Este 0 1001.8 -0.4 86
2017-08-13 23:00:00 18.8 14 Este 30 Sudeste 0 1002.3 0 86
2017-08-13 22:00:00 19.1 19 Este 33 Este 0 1002.2 -0.2 85
2017-08-13 21:00:00 19.6 18 Este 35 Este 0 1002.2 -0.4 81
2017-08-13 20:00:00 20.8 18 Este 35 Este 0 1002.3 -0.7 74
2017-08-13 19:00:00 21.8 23 Este 35 Este 0 1002.4 -1.1 69
2017-08-13 18:00:00 22.3 18 Este 35 Este 0 1002.6 -1.3 64
2017-08-13 17:00:00 23 16 Este 33 Nordeste 0 1003 -1.4 61
2017-08-13 16:00:00 22.8 12 Este 32 Este 0 1003.5 -1.2 60
2017-08-13 15:00:00 22.7 15 Este 33 Este 0 1003.9 -1.4 60
2017-08-13 14:00:00 22.3 17 Este 37 Este 0 1004.4 -1.4 61
2017-08-13 13:00:00 22.3 12 Este 30 Este 0 1004.7 -1 60
2017-08-13 12:00:00 22 17 Este 30 Este 0 1005.3 -0.2 63
2017-08-13 11:00:00 20.3 15 Sudeste 30 Sudeste 0 1005.8 0.4 72
2017-08-13 10:00:00 18.6 6 Sudeste 24 Sudeste 0 1005.7 0.2 80
2017-08-13 09:00:00 16.2 5 Sur 13 Sudeste 0 1005.5 -0.2 93
2017-08-13 08:00:00 12.8 5 Sur 17 Sudeste 0 1005.4 -0.7 95
2017-08-13 07:00:00 13.1 8 Sudeste 15 Sudeste 0 1005.5 -1.1 95
2017-08-13 06:00:00 12.5 6 Sur 13 Sudeste 0 1005.7 -1.3 95
2017-08-13 05:00:00 12.8 4 Sur 9 Sudeste 0 1006.1 -1.3 94
2017-08-13 04:00:00 13.1 6 Sudeste 8 Sudeste 0 1006.6 -1 93
2017-08-13 03:00:00 14.4 4 Sur 11 Sur 0 1007 -0.7 92
2017-08-13 02:00:00 14.2 5 Sudeste 13 Sudeste 0 1007.4 -0.6 92
2017-08-13 01:00:00 14.4 11 Sudeste 17 Sudeste 0 1007.6 -0.1 91
2017-08-13 00:00:00 14.5 13 Sudeste 17 Sudeste 0 1007.7 -0.1 91
2017-08-12 23:00:00 15.9 12 Sudeste 18 Este 0 1008 0 86
2017-08-12 22:00:00 17.2 12 Este 21 Este 0 1007.7 -0.3 81
2017-08-12 21:00:00 19 10 Este 21 Este 0 1007.8 -0.2 73
2017-08-12 20:00:00 20.3 10 Este 24 Este 0 1008 -0.1 67
2017-08-12 19:00:00 20.6 8 Este 26 Nordeste 0 1008 -0.5 69
2017-08-12 18:00:00 21.2 8 Nordeste 26 Nordeste 0 1008 -0.4 67
2017-08-12 17:00:00 21.3 11 Este 28 Este 0 1008.1 -0.5 66
2017-08-12 16:00:00 21.6 10 Este 24 Este 0 1008.5 -0.2 65
2017-08-12 15:00:00 22.6 9 Este 24 Este 0 1008.4 -0.4 64
2017-08-12 14:00:00 22.3 11 Este 26 Este 0 1008.6 0.1 63
2017-08-12 13:00:00 22.2 8 Este 22 Este 0 1008.7 0.1 61
2017-08-12 12:00:00 21.4 7 Este 17 Este 0 1008.8 0.2 61
2017-08-12 11:00:00 20.4 3 Este 21 Este 0 1008.5 0.2 66
2017-08-12 10:00:00 18.8 6 Sudeste 13 Este 0 1008.6 0.4 73
2017-08-12 09:00:00 14.6 2 Sur 11 Sudeste 0 1008.6 0.4 91
2017-08-12 08:00:00 13.7 7 Sudeste 15 Sudeste 0 1008.3 -0.3 91
2017-08-12 07:00:00 13.9 9 Sudeste 13 Sudeste 0 1008.2 -0.6 89
2017-08-12 06:00:00 15.7 8 Este -- -- 0 1008.2 -0.8 87
2017-08-12 05:00:00 15.4 8 Sudeste 13 Sudeste 0 1008.6 -0.8 89
2017-08-12 04:00:00 14.3 8 Sudeste 11 Sudeste 0 1008.8 -0.8 89
2017-08-12 03:00:00 14 7 Sudeste -- -- 0 1009 -0.9 90
2017-08-12 02:00:00 13.6 5 Sudeste 15 Sudeste 0 1009.4 -0.7 91
2017-08-12 01:00:00 13.9 9 Sudeste 13 Sudeste 0 1009.6 -0.3 88
2017-08-12 00:00:00 15.3 8 Sudeste 13 Este 0 1009.9 0.1 86
2017-08-11 23:00:00 16.2 10 Este 17 Este 0 1010.1 0.2 81
2017-08-11 22:00:00 16.6 9 Este 17 Este 0 1009.9 0.1 78
2017-08-11 21:00:00 18.4 9 Este 24 Este 0 1009.8 -0.2 70
2017-08-11 20:00:00 19.7 9 Este 22 Nordeste 0 1009.9 -0.2 65
2017-08-11 19:00:00 20.2 7 Nordeste 22 Nordeste 0 1009.8 -0.6 64
2017-08-11 18:00:00 20.3 10 Este 24 Nordeste 0 1010 -0.5 64
2017-08-11 17:00:00 19.1 6 Nordeste 28 Nordeste 0 1010.1 -0.5 68
2017-08-11 16:00:00 21.2 8 Este 30 Sudeste 0 1010.4 -0.6 61
2017-08-11 15:00:00 20.8 11 Este 28 Sudeste 0 1010.5 -0.4 61
2017-08-11 14:00:00 21.3 6 Nordeste 26 Nordeste 0 1010.6 -0.3 63
2017-08-11 13:00:00 20.5 8 Nordeste 21 Nordeste 0 1011 0.1 66
2017-08-11 12:00:00 20.2 6 Nordeste 17 Nordeste 0 1010.9 0.1 63
2017-08-11 11:00:00 19.5 9 Sudeste 21 Sudoeste 0 1010.9 0.6 65
2017-08-11 10:00:00 16 0 Calma 21 Sur 0 1010.9 0.7 77
2017-08-11 09:00:00 13.8 10 Sudoeste 21 Sur 0 1010.8 0.4 88
2017-08-11 08:00:00 12.7 15 Sur 32 Sudoeste 0 1010.3 -0.5 91
2017-08-11 07:00:00 12.6 10 Sur 18 Sur 0 1010.2 -1.2 91
2017-08-11 06:00:00 12.8 11 Sudoeste 15 Sudoeste 0 1010.4 -1.5 91
2017-08-11 05:00:00 12.5 7 Sur 11 Sur 0 1010.8 -1.7 89
2017-08-11 04:00:00 12.6 8 Sur 11 Sur 0 1011.4 -1.4 85
2017-08-11 03:00:00 13.2 5 Sur 11 Sur 0 1011.9 -1 86
2017-08-11 02:00:00 13.3 5 Sudeste 11 Sudeste 0 1012.5 -0.6 85
2017-08-11 01:00:00 -- 8 Sudeste 11 Sudeste 0 1012.8 -0.1 --
2017-08-11 00:00:00 14.1 0 Calma 8 Este 0 1012.9 0.1 83
2017-08-10 23:00:00 15.6 4 Este 9 Sudeste 0 1013.1 0.2 76
2017-08-10 22:00:00 16.3 0 Calma 8 Este 0 1012.9 -0.3 73
2017-08-10 21:00:00 17.9 2 Este 13 Nordeste 0 1012.8 -0.5 67
2017-08-10 20:00:00 19.5 6 Nordeste 22 Norte 0 1012.9 -0.5 63
2017-08-10 19:00:00 20.4 9 Norte 18 Nordeste 0 1013.2 -0.7 63
2017-08-10 18:00:00 20.8 7 Norte 21 Norte 0 1013.3 -0.5 59
2017-08-10 17:00:00 20.3 8 Norte 18 Nordeste 0 1013.4 -0.4 59
2017-08-10 16:00:00 21.2 8 Norte 22 Norte 0 1013.9 0.2 59
2017-08-10 15:00:00 20.9 9 Norte 18 Norte 0 1013.8 0.3 60
2017-08-10 14:00:00 19.9 8 Norte 22 Noroeste 0 1013.8 0.5 62
2017-08-10 13:00:00 20.3 8 Noroeste 15 Noroeste 0 1013.7 0.4 61
2017-08-10 12:00:00 19.6 7 Oeste 15 Oeste 0 1013.5 0.3 63
2017-08-10 11:00:00 18.3 6 Sudoeste 30 Sudoeste 0 1013.3 0.5 69
2017-08-10 10:00:00 16.3 10 Sudoeste 30 Sudoeste 0 1013.3 0.9 77
2017-08-10 09:00:00 14.6 8 Sudoeste 17 Sudoeste 0 1013.2 1 85
2017-08-10 08:00:00 12.7 8 Sudoeste 26 Sudoeste 0 1012.8 0.6 90
2017-08-10 07:00:00 12.9 7 Sudoeste 15 Sudoeste 0 1012.4 -0.1 89
2017-08-10 06:00:00 13.4 9 Sudoeste 22 Sudoeste 0.1 1012.2 -0.5 87
2017-08-10 05:00:00 13.4 12 Sudoeste 22 Sudoeste 0 1012.2 -0.6 86
2017-08-10 04:00:00 13.1 14 Sudoeste 21 Sur 0 1012.5 0 87
2017-08-10 03:00:00 13.2 10 Sudoeste 21 Sudoeste 0 1012.7 0.4 88
2017-08-10 02:00:00 13.4 8 Sudoeste 15 Sudoeste 0 1012.8 0.7 87
2017-08-10 01:00:00 13.4 8 Sudoeste 15 Sudoeste 0 1012.5 1 86
2017-08-10 00:00:00 14.6 8 Sudoeste 15 Sudoeste 0 1012.3 1 79
2017-08-09 23:00:00 15.9 4 Oeste 17 Oeste 0 1012.1 1.4 72
2017-08-09 22:00:00 16.3 5 Noroeste 15 Oeste 0 1011.5 1 65
2017-08-09 21:00:00 17.6 4 Noroeste 15 Norte 0 1011.3 0.9 62
2017-08-09 20:00:00 19.2 5 Norte 24 Noroeste 0 1010.7 0.3 53
2017-08-09 19:00:00 19.8 12 Noroeste 28 Noroeste 0 1010.5 0.4 56
2017-08-09 18:00:00 19.9 15 Noroeste 26 Noroeste 0 1010.4 0.6 56
2017-08-09 17:00:00 20.2 13 Noroeste 28 Noroeste 0 1010.4 0.8 54
2017-08-09 16:00:00 19.9 15 Noroeste 28 Noroeste 0 1010.1 1 60
2017-08-09 15:00:00 19.3 18 Noroeste 35 Noroeste 0 1009.8 1.2 56
2017-08-09 14:00:00 16.3 14 Noroeste 46 Noroeste 0.2 1009.6 1.5 77
2017-08-09 13:00:00 18 16 Noroeste 33 Noroeste 0 1009.1 1.7 63
2017-08-09 12:00:00 16.9 13 Noroeste 32 Noroeste 0 1008.6 1.7 66
2017-08-09 11:00:00 18.5 15 Noroeste 32 Noroeste 0 1008.1 1.6 61
2017-08-09 10:00:00 17.3 13 Noroeste 28 Noroeste 0 1007.4 1.2 60
2017-08-09 09:00:00 15.8 14 Noroeste 30 Noroeste 0 1006.9 1 65
2017-08-09 08:00:00 15.2 12 Noroeste 33 Noroeste 0 1006.5 0.7 70
2017-08-09 07:00:00 14.8 8 Oeste 30 Oeste 0.2 1006.2 0.5 79
2017-08-09 06:00:00 13.9 9 Oeste 18 Oeste 0 1005.9 -0.1 91
2017-08-09 05:00:00 14 12 Oeste 42 Noroeste 1.8 1005.8 -0.4 88
2017-08-09 04:00:00 14.4 8 Oeste 33 Oeste 0.8 1005.7 -0.5 91
2017-08-09 03:00:00 14.7 20 Oeste 37 Oeste 1.4 1006 -0.3 89
2017-08-09 02:00:00 14.6 9 Oeste 32 Oeste 0.8 1006.2 -0.2 90
2017-08-09 01:00:00 15.8 8 Oeste 17 Oeste 0 1006.2 0.2 75
2017-08-09 00:00:00 16.2 8 Oeste 18 Oeste 0 1006.3 0.3 73
2017-08-08 23:00:00 16.7 11 Oeste 18 Oeste 0 1006.4 0.4 72
2017-08-08 22:00:00 16.9 6 Oeste 24 Oeste 0 1006 -0.1 72
2017-08-08 21:00:00 18.1 15 Oeste 24 Oeste 0 1006 -0.1 63
2017-08-08 20:00:00 18.4 12 Noroeste 22 Oeste 0 1006 0 66
2017-08-08 19:00:00 19.2 12 Oeste 28 Oeste 0 1006.1 -0.2 64
2017-08-08 18:00:00 20.2 13 Noroeste 30 Noroeste 0 1006.1 -0.4 59
2017-08-08 17:00:00 20.7 17 Oeste 30 Oeste 0 1006 -0.6 59
2017-08-08 16:00:00 20.8 18 Oeste 28 Oeste 0 1006.3 -0.2 63
2017-08-08 15:00:00 19.2 19 Oeste 30 Noroeste 0 1006.5 0.3 65
2017-08-08 14:00:00 19.6 17 Oeste 30 Oeste 0 1006.6 0.8 67
2017-08-08 13:00:00 18.1 19 Oeste 32 Oeste 0 1006.5 0.9 69
2017-08-08 12:00:00 18.9 17 Oeste 30 Noroeste 0 1006.2 1.1 74
2017-08-08 11:00:00 18.3 15 Oeste 26 Noroeste 0 1005.8 0.9 76
2017-08-08 10:00:00 16.1 11 Sudoeste 22 Oeste 0 1005.6 1.3 86
2017-08-08 09:00:00 14.3 12 Oeste 24 Sudoeste 0 1005.1 0.6 90
2017-08-08 08:00:00 13.3 12 Sudoeste 22 Sudoeste 0.2 1004.9 0.7 92
2017-08-08 07:00:00 13.3 7 Sudoeste 15 Sur 0.7 1004.3 -0.3 93
2017-08-08 06:00:00 13.6 7 Sudoeste 18 Sudoeste 0 1004.5 -0.1 91
2017-08-08 05:00:00 13.6 9 Sudoeste 21 Sudoeste 0 1004.2 -0.5 92
2017-08-08 04:00:00 13.6 10 Sudoeste 18 Sur 0 1004.6 -0.2 93
2017-08-08 03:00:00 13.5 5 Sudoeste 15 Sur 0 1004.6 -0.2 93
2017-08-08 02:00:00 14 6 Sudoeste 13 Sudoeste 0 1004.7 0 90
2017-08-08 01:00:00 15.1 8 Oeste 21 Oeste 0 1004.8 0.8 85
2017-08-08 00:00:00 15.4 14 Oeste 26 Oeste 0 1004.8 1.2 84
2017-08-07 23:00:00 15.1 10 Oeste 21 Oeste 0 1004.7 1.6 90
2017-08-07 22:00:00 14.8 6 Oeste 24 Noroeste 0.6 1004 1.1 94
2017-08-07 21:00:00 16 12 Noroeste 30 Oeste 0 1003.6 0.7 89
2017-08-07 20:00:00 16.7 10 Oeste 18 Oeste 0 1003.1 0.8 83
2017-08-07 19:00:00 17 5 Oeste 21 Norte 0 1002.9 0.7 84
2017-08-07 18:00:00 16.9 3 Sudoeste 21 Oeste 0.1 1002.9 1 87
2017-08-07 17:00:00 16.4 4 Noroeste 18 Oeste 1 1002.3 0.7 93
2017-08-07 16:00:00 16.5 4 Oeste 15 Oeste 0.8 1002.2 0.6 95
2017-08-07 15:00:00 16.9 0 Calma 9 Norte 0.4 1001.9 0.2 94
2017-08-07 14:00:00 16.9 2 Nordeste 11 Este 0.8 1001.6 0.3 94
2017-08-07 13:00:00 16.8 0 Calma 21 Este 1.5 1001.6 0.3 95
2017-08-07 12:00:00 16.9 4 Sur 8 Sur 2.8 1001.7 0.5 92
2017-08-07 11:00:00 17.4 4 Este 15 Este 0 1001.3 0 92
2017-08-07 10:00:00 17.3 2 Oeste 11 Sudoeste 0 1001.3 0.1 84
2017-08-07 09:00:00 16.9 0 Calma 8 Sudoeste 0 1001.2 -0.3 86
2017-08-07 08:00:00 16.9 4 Sudoeste 17 Sur 0 1001.3 -0.6 84
2017-08-07 07:00:00 17.2 7 Sur 13 Sur 0 1001.2 -1.5 83
2017-08-07 06:00:00 16.9 6 Sudeste 13 Sudeste 0 1001.5 -1.9 85
2017-08-07 05:00:00 16.7 8 Sudeste 11 Sudeste 0 1001.9 -2.2 86
2017-08-07 04:00:00 17 3 Sur 9 Este 0 1002.7 -2 84
2017-08-07 03:00:00 17.3 3 Sudeste 13 Este 0 1003.4 -1.7 83
2017-08-07 02:00:00 17.6 10 Sudeste 21 Este 0 1004.1 -1.4 81
2017-08-07 01:00:00 17.8 6 Este 18 Este 0 1004.7 -0.7 78
2017-08-07 00:00:00 17.9 12 Este 21 Este 0 1005.1 -0.4 76
2017-08-06 23:00:00 17.9 12 Este 26 Este 0 1005.5 -0.4 73
2017-08-06 22:00:00 17.9 13 Este 32 Este 0 1005.4 -0.9 72
2017-08-06 21:00:00 18.1 14 Este 30 Este 0 1005.5 -1.1 71
2017-08-06 20:00:00 18.4 13 Este 33 Este 0 1005.9 -0.9 71
2017-08-06 19:00:00 18.9 14 Este 30 Este 0 1006.3 -1 68
2017-08-06 18:00:00 19.3 13 Este 37 Este 0 1006.6 -1 67
2017-08-06 17:00:00 19.7 16 Este 33 Nordeste 0 1006.8 -1.2 66
2017-08-06 16:00:00 21.1 17 Este 33 Este 0 1007.3 -1.4 61
2017-08-06 15:00:00 21.1 17 Este 35 Este 0 1007.6 -1.4 59
2017-08-06 14:00:00 20.9 13 Este 33 Este 0 1008 -1 63
2017-08-06 13:00:00 19.3 16 Este 30 Este 0 1008.7 -0.4 69
2017-08-06 12:00:00 19.3 14 Este 32 Este 0 1009 -0.1 67
2017-08-06 11:00:00 19.3 19 Este 37 Este 0 1009 0.1 65
2017-08-06 10:00:00 17.9 17 Este 26 Este 0 1009.1 0.5 72
2017-08-06 09:00:00 17 14 Este 26 Este 0 1009.1 0.4 74
2017-08-06 08:00:00 16.6 13 Este 24 Este 0 1008.9 0 76
2017-08-06 07:00:00 16.3 13 Este 22 Este 0 1008.6 -0.3 80
2017-08-06 06:00:00 15.7 13 Este 22 Este 0 1008.7 -0.2 90
2017-08-06 05:00:00 15.5 13 Sudeste 21 Sudeste 0 1008.9 -0.5 95
2017-08-06 04:00:00 15.6 14 Sudeste 22 Sudeste 0 1008.9 -0.7 95
2017-08-06 03:00:00 15.4 15 Sudeste 21 Sudeste 0 1008.9 -1 94
2017-08-06 02:00:00 15.5 17 Sudeste 26 Sudeste 0.2 1009.4 -0.4 95
2017-08-06 01:00:00 15.8 15 Sudeste 21 Sudeste 0 1009.6 0.3 95
2017-08-06 00:00:00 15.7 11 Sudeste 17 Sudeste 0 1009.9 0.9 95
2017-08-05 23:00:00 15.7 13 Sudeste 17 Sudeste 0 1009.8 0.9 95
2017-08-05 22:00:00 15.7 9 Sudeste 17 Sudeste 0 1009.3 0.4 95
2017-08-05 21:00:00 16 10 Este 24 Este 0.6 1009 0.4 95
2017-08-05 20:00:00 16.3 8 Este 24 Este 0.3 1008.9 0.5 94
2017-08-05 19:00:00 16.6 8 Este 22 Nordeste 0.3 1008.9 0.3 92
2017-08-05 18:00:00 18.3 5 Norte 17 Norte 0 1008.6 -0.1 80
2017-08-05 17:00:00 18.2 4 Norte 22 Nordeste 0 1008.4 -0.4 79
2017-08-05 16:00:00 19.1 5 Nordeste 15 Este 0 1008.6 -0.1 73
2017-08-05 15:00:00 18.6 3 Nordeste 15 Nordeste 0 1008.7 0.2 77
2017-08-05 14:00:00 17 0 Calma 17 Nordeste 0.1 1008.8 0.8 89
2017-08-05 13:00:00 18.4 2 Oeste 8 Este 0 1008.7 0.9 84
2017-08-05 12:00:00 17.5 0 Calma 18 Oeste 0 1008.5 1.3 89
2017-08-05 11:00:00 17.6 0 Calma 8 Sudoeste 0 1008 1.3 91
2017-08-05 10:00:00 16.4 4 Sudoeste 13 Oeste 0.3 1007.8 1.5 95
2017-08-05 09:00:00 16.3 4 Sudoeste 8 Sudoeste 0 1007.2 1.3 96
2017-08-05 08:00:00 16.1 2 Sudeste 8 Nordeste 0.4 1006.7 0.8 97
2017-08-05 07:00:00 16.1 4 Nordeste 17 Nordeste 1.5 1006.3 0.7 97
2017-08-05 06:00:00 16.4 2 Oeste 13 Noroeste 1 1005.9 0.6 97
2017-08-05 05:00:00 16.6 4 Noroeste 21 Noroeste 0.9 1005.9 1.1 97
2017-08-05 04:00:00 16.7 0 Calma 18 Norte 1.3 1005.6 1.3 97
2017-08-05 03:00:00 17.2 3 Sudoeste 17 Este 1.1 1005.3 1 97
2017-08-05 02:00:00 18 3 Norte 17 Nordeste 1.6 1004.8 0.6 96
2017-08-05 01:00:00 18.7 8 Nordeste 21 Norte 0.6 1004.3 0.6 96
2017-08-05 00:00:00 19.5 6 Nordeste 17 Este 0.3 1004.3 0.8 96
2017-08-04 23:00:00 19.8 0 Calma 5 Norte 0 1004.2 0.9 95
2017-08-04 22:00:00 20 2 Nordeste 5 Nordeste 0 1003.7 0.5 94
2017-08-04 21:00:00 20 0 Calma 5 Noroeste 0 1003.5 0.4 94
2017-08-04 20:00:00 20.4 0 Calma 11 Noroeste 0 1003.3 0 92
2017-08-04 19:00:00 21.4 3 Norte 15 Norte 0 1003.2 0.2 85
2017-08-04 18:00:00 21.4 3 Nordeste 13 Norte 0 1003.1 0.2 85
2017-08-04 17:00:00 21.5 3 Nordeste 15 Nordeste 0 1003.3 0.3 86
2017-08-04 16:00:00 22.6 4 Nordeste 17 Norte 0 1003 0 81
2017-08-04 15:00:00 23.3 9 Norte 17 Norte 0 1002.9 -0.2 81
2017-08-04 14:00:00 22.9 6 Norte 21 Norte 0 1003 -0.1 82
2017-08-04 13:00:00 23.8 9 Norte 17 Norte 0 1003 0.3 78
2017-08-04 12:00:00 24.1 5 Nordeste 15 Norte 0 1003.1 1 75
2017-08-04 11:00:00 23.4 2 Nordeste 8 Nordeste 0 1003.1 1.4 73
2017-08-04 10:00:00 23 2 Norte 13 Sur 0 1002.7 1.1 73
2017-08-04 09:00:00 21.6 0 Calma 13 Sudoeste 0 1002.1 0.6 76
2017-08-04 08:00:00 20.8 9 Sudoeste 26 Sudoeste 0 1001.7 -0.1 76
2017-08-04 07:00:00 20 11 Sudoeste 18 Sudoeste 0 1001.6 -0.3 80
2017-08-04 06:00:00 18.8 11 Sudoeste 18 Sudoeste 0 1001.5 -0.4 84
2017-08-04 05:00:00 19.1 6 Sudoeste 15 Sudoeste 0 1001.8 -0.7 84
2017-08-04 04:00:00 19.1 6 Sudoeste 17 Sudoeste 0 1001.9 -1.1 83
2017-08-04 03:00:00 18.9 10 Sudoeste 21 Sur 0 1001.9 -1.5 83
2017-08-04 02:00:00 18.6 6 Sur 17 Sur 0 1002.5 -1.4 85
2017-08-04 01:00:00 17.3 6 Sur 11 Sur 0 1003 -0.7 89
2017-08-04 00:00:00 17.4 7 Sudeste 15 Sudeste 0 1003.4 -0.3 87
2017-08-03 23:00:00 18.1 9 Sudeste 15 Este 0 1003.9 0.1 82
2017-08-03 22:00:00 19.2 7 Este 13 Este 0 1003.7 -0.4 77
2017-08-03 21:00:00 21 3 Nordeste 11 Nordeste 0 1003.7 -0.6 66
2017-08-03 20:00:00 21.8 5 Este 13 Nordeste 0 1003.8 -0.3 62
2017-08-03 19:00:00 21.7 4 Este 13 Este 0 1004.1 -0.4 67
2017-08-03 18:00:00 21.6 5 Norte 17 Norte 0 1004.3 -0.6 70
2017-08-03 17:00:00 22.3 8 Norte 17 Norte 0 1004.1 -1.1 68
2017-08-03 16:00:00 22.1 6 Norte 15 Noroeste 0 1004.5 -0.7 69
2017-08-03 15:00:00 21.7 4 Norte 18 Norte 0 1004.9 -0.2 73
2017-08-03 14:00:00 21.5 13 Noroeste 18 Noroeste 0 1005.2 0 75
2017-08-03 13:00:00 21.2 12 Oeste 18 Oeste 0 1005.2 0.4 76
2017-08-03 12:00:00 20.3 9 Noroeste 22 Noroeste 0 1005.1 1 80
2017-08-03 11:00:00 18.9 12 Noroeste 26 Oeste 0 1005.2 2 90
2017-08-03 10:00:00 20.6 5 Noroeste 11 Noroeste 0 1004.8 1.8 87
2017-08-03 09:00:00 19.5 2 Noroeste 13 Norte 0 1004.1 1.3 80
2017-08-03 08:00:00 18.8 9 Sudoeste 18 Sur 0 1003.2 0.3 78
2017-08-03 07:00:00 18.4 10 Sudoeste 17 Sudoeste 0 1003 0.1 80
2017-08-03 06:00:00 18 13 Sudoeste 18 Sudoeste 0 1002.8 -0.1 82
2017-08-03 05:00:00 17.8 12 Sudoeste 17 Sudoeste 0 1002.9 -0.4 82
2017-08-03 04:00:00 17.7 11 Sudoeste 18 Sudoeste 0 1002.9 -0.7 81
2017-08-03 03:00:00 18 8 Sudoeste 17 Sudoeste 0 1002.9 -0.7 78
2017-08-03 02:00:00 18.3 7 Sudoeste 15 Sudoeste 0 1003.3 0.3 77
2017-08-03 01:00:00 17.8 5 Sudoeste 8 Sudoeste 0 1003.6 1 78
2017-08-03 00:00:00 18.6 0 Calma 5 Sudoeste 0 1003.6 0.8 77
2017-08-02 23:00:00 19.1 0 Calma 4 Sur 0 1003 0.9 76
2017-08-02 22:00:00 20.7 0 Calma 4 Sur 0 1002.6 0.8 68
2017-08-02 21:00:00 24.5 0 Calma 11 Este 0 1002.8 0.9 55
2017-08-02 20:00:00 24.5 4 Nordeste 15 Este 0 1002.1 -0.3 56
2017-08-02 19:00:00 26.1 5 Nordeste 17 Nordeste 0 1001.8 -1.2 51
2017-08-02 18:00:00 26.2 6 Nordeste 17 Este 0 1001.9 -1.6 47
2017-08-02 17:00:00 25.4 6 Este 15 Este 0 1002.4 -1.5 50
2017-08-02 16:00:00 25.1 6 Nordeste 17 Norte 0 1003 -1.3 53
2017-08-02 15:00:00 24 6 Norte 13 Norte 0 1003.5 -0.5 57
2017-08-02 14:00:00 21.9 4 Norte 17 Norte 0 1003.9 -0.1 62
2017-08-02 13:00:00 21.6 6 Norte 15 Norte 0 1004.3 0.5 66
2017-08-02 12:00:00 22 4 Norte 13 Noroeste 0 1004 0 61
2017-08-02 11:00:00 20.8 6 Sudoeste 22 Sudoeste 0 1004 0 71
2017-08-02 10:00:00 18 13 Sudoeste 21 Sudoeste 0 1003.8 -0.3 82
2017-08-02 09:00:00 16 14 Sudoeste 26 Sur 0 1004 0.3 90
2017-08-02 08:00:00 14.3 12 Sur 24 Sudoeste 0 1004 0.2 95
2017-08-02 07:00:00 14.2 8 Sudoeste 17 Sudoeste 0 1004.1 0.2 95
2017-08-02 06:00:00 14.3 5 Sudoeste 13 Sudoeste 0 1003.7 -0.2 95
2017-08-02 05:00:00 14.5 7 Sudoeste 13 Sudoeste 0 1003.8 -0.4 95
2017-08-02 04:00:00 15 6 Sudoeste 15 Oeste 0 1003.9 -0.9 94
2017-08-02 03:00:00 15.8 6 Sudoeste 21 Sur 0 1003.9 -1.2 94
2017-08-02 02:00:00 15.4 8 Sur 15 Sudoeste 0 1004.2 -0.8 95
2017-08-02 01:00:00 14.7 5 Sur 13 Sudeste 0 1004.8 0.2 93
2017-08-02 00:00:00 14.9 5 Sudeste 13 Sudeste 0 1005.1 1.3 92
2017-08-01 23:00:00 16.1 9 Sudeste 15 Sudeste 0 1005 1.5 88
2017-08-01 22:00:00 17.8 9 Este 13 Este 0 1004.6 1.3 81
2017-08-01 21:00:00 18.8 9 Este 15 Este 0 1003.8 0.4 76
2017-08-01 20:00:00 20.5 5 Este 15 Este 0 1003.5 0.3 73
2017-08-01 19:00:00 19.7 7 Este 17 Nordeste 0 1003.3 -0.1 72
2017-08-01 18:00:00 20.1 5 Nordeste 17 Nordeste 0 1003.4 0 66
2017-08-01 17:00:00 20.2 6 Este 15 Este 0 1003.2 -0.1 72
2017-08-01 16:00:00 20.1 2 Nordeste 11 Nordeste 0 1003.4 0.3 77
2017-08-01 15:00:00 18.2 2 Norte 8 Norte 0 1003.4 0.5 84
2017-08-01 14:00:00 17.5 2 Norte 15 Nordeste 0 1003.3 0.6 90
2017-08-01 13:00:00 18.3 4 Nordeste 17 Este 0 1003.1 0.7 81
2017-08-01 12:00:00 18.7 3 Este 11 Sudeste 0 1002.9 1.2 79
2017-08-01 11:00:00 17.2 4 Sur 11 Este 0 1002.7 1.5 91
2017-08-01 10:00:00 15.9 0 Calma 8 Sudeste 0.9 1002.4 1.6 95
2017-08-01 09:00:00 15.5 6 Sudeste 8 Sudeste 0.5 1001.7 1.2 96
2017-08-01 08:00:00 15.4 5 Sudeste 13 Sur 0.2 1001.2 0.7 96
2017-08-01 07:00:00 15.4 3 Sudeste 8 Sudeste 0.3 1000.8 0.2 96
2017-08-01 06:00:00 15.5 3 Sur 5 Sur 0.1 1000.5 -0.1 96
2017-08-01 05:00:00 15.3 0 Calma 8 Sudoeste 0.9 1000.5 -0.3 96
2017-08-01 04:00:00 15.3 5 Sudoeste 8 Sudoeste 1.5 1000.6 0 95
2017-08-01 03:00:00 15.5 6 Sudoeste 11 Sudoeste 0.1 1000.6 0 94
2017-08-01 02:00:00 15.9 3 Sur 11 Sur 0.1 1000.8 0.3 90
2017-08-01 01:00:00 16.5 5 Sudeste 8 Sudeste 0 1000.6 0.3 86
2017-08-01 00:00:00 16.4 5 Sur 11 Sudeste 0 1000.6 0.7 86
2017-07-31 23:00:00 16.5 8 Sudeste 15 Sur 0 1000.5 0.8 88
2017-07-31 22:00:00 16.7 5 Sudeste 13 Sur 0 1000.3 0.8 87
2017-07-31 21:00:00 17.2 4 Sudeste 11 Sudeste 0 999.9 0.4 88
2017-07-31 20:00:00 17.9 4 Sudeste 11 Este 0 999.7 0.4 86
2017-07-31 19:00:00 17.6 3 Este 11 Este 0 999.5 0.1 89
2017-07-31 18:00:00 17.7 3 Nordeste 17 Nordeste 0 999.5 0.2 86
2017-07-31 17:00:00 18 5 Nordeste 18 Norte 0 999.3 0.2 84
2017-07-31 16:00:00 18.3 4 Nordeste 17 Oeste 0 999.4 0.4 84
2017-07-31 15:00:00 19.1 7 Noroeste 17 Noroeste 0 999.3 0 82
2017-07-31 14:00:00 19 9 Noroeste 17 Noroeste 0 999.1 0 82
2017-07-31 13:00:00 19.2 6 Noroeste 13 Oeste 0 999 0 80
2017-07-31 12:00:00 18.6 4 Noroeste 11 Oeste 0 999.3 0.5 80
2017-07-31 11:00:00 18.5 6 Noroeste 13 Noroeste 0 999.1 0.7 81
2017-07-31 10:00:00 17.3 0 Calma 17 Oeste 0 999 0 87
2017-07-31 09:00:00 16.3 3 Sudoeste 15 Sudoeste 0 998.8 -0.1 89
2017-07-31 08:00:00 15.7 7 Sur 33 Sur 0 998.4 -0.8 90
2017-07-31 07:00:00 15.6 13 Sur 18 Sudoeste 0 999 -0.8 91
2017-07-31 06:00:00 15.5 6 Sudoeste 13 Sudoeste 0 998.9 -1.5 94
2017-07-31 05:00:00 15.4 3 Sudoeste 15 Sudeste 0 999.2 -1.4 94
2017-07-31 04:00:00 15.4 9 Sur 13 Sur 0.2 999.8 -1.1 93
2017-07-31 03:00:00 15.7 2 Nordeste 15 Norte 1.2 1000.4 -0.9 91
2017-07-31 02:00:00 17.1 3 Sudoeste 9 Sur 0 1000.6 -0.6 80
2017-07-31 01:00:00 17.5 3 Sur 8 Sudoeste 0 1000.9 -0.2 80
2017-07-31 00:00:00 17.9 2 Oeste 11 Noroeste 0 1001.3 0.4 77
2017-07-30 23:00:00 18.1 2 Noroeste 11 Norte 0 1001.2 0.5 76
2017-07-30 22:00:00 18.2 5 Noroeste 15 Noroeste 0 1001.1 0.3 72
2017-07-30 21:00:00 18.3 5 Noroeste 18 Oeste 0 1000.9 -0.1 73
2017-07-30 20:00:00 18.9 11 Noroeste 28 Noroeste 0 1000.7 -0.2 70
2017-07-30 19:00:00 19.2 13 Noroeste 26 Noroeste 0 1000.8 0 74
2017-07-30 18:00:00 19.5 16 Noroeste 28 Noroeste 0 1001 0.4 73
2017-07-30 17:00:00 20.8 9 Noroeste 22 Noroeste 0 1000.9 0.3 71
2017-07-30 16:00:00 22.1 10 Noroeste 21 Noroeste 0 1000.8 0.6 66
2017-07-30 15:00:00 22.1 11 Noroeste 22 Noroeste 0 1000.6 0.4 67
2017-07-30 14:00:00 21.4 8 Noroeste 22 Noroeste 0 1000.6 0.3 68
2017-07-30 13:00:00 21.5 10 Noroeste 22 Oeste 0 1000.2 0 71
2017-07-30 12:00:00 21.6 10 Noroeste 21 Noroeste 0 1000.2 -0.4 71
2017-07-30 11:00:00 21.9 10 Noroeste 18 Noroeste 0 1000.3 0 73
2017-07-30 10:00:00 20.8 7 Noroeste -- -- -- 1000.2 0.2 74
2017-07-30 09:00:00 18.8 10 Oeste 22 Oeste 0 1000.6 0.6 84
2017-07-30 08:00:00 18.3 15 Oeste 22 Oeste 0 1000.3 0 87
2017-07-30 07:00:00 18.4 12 Oeste 26 Oeste 0 1000 -0.4 90
2017-07-30 06:00:00 18.3 17 Oeste 30 Oeste 0 1000 -0.4 91
2017-07-30 05:00:00 18.6 14 Noroeste 26 Oeste 0 1000.3 -0.4 93
2017-07-30 04:00:00 18.9 12 Noroeste 24 Noroeste 0 1000.4 -0.3 92
2017-07-30 03:00:00 18.5 5 Sudoeste 13 Sudoeste 0 1000.4 -0.3 91
2017-07-30 02:00:00 19.5 7 Sudoeste 18 Sur 0 1000.7 0.1 91
2017-07-30 01:00:00 19.7 12 Sur 18 Sudoeste 0 1000.7 0.7 91
2017-07-30 00:00:00 20.1 8 Sur 11 Sur 0 1000.7 1.3 90
2017-07-29 23:00:00 19.9 0 Calma 13 Nordeste 0 1000.6 1.9 91
2017-07-29 22:00:00 21.1 3 Nordeste 17 Nordeste 0 1000 1.4 85
2017-07-29 21:00:00 23.7 5 Norte 13 Norte 0 999.4 0.9 72
2017-07-29 20:00:00 25.7 4 Norte 11 Norte 0 998.7 0.2 62
2017-07-29 19:00:00 26.5 6 Norte 17 Norte 0 998.6 -0.3 59
2017-07-29 18:00:00 27.7 3 Norte 17 Norte 0 998.5 -0.9 56
2017-07-29 17:00:00 27.4 5 Nordeste 15 Este 0 998.5 -1.4 55
2017-07-29 16:00:00 26.5 6 Norte 15 Noroeste 0 998.9 -1.5 57
2017-07-29 15:00:00 25.9 6 Norte 17 Norte 0 999.4 -- 57
2017-07-29 14:00:00 25.5 8 Norte 17 Norte 0 999.9 -1.2 58
2017-07-29 13:00:00 25.9 5 Norte 13 Nordeste 0 1000.4 -0.6 56
2017-07-29 12:00:00 -- -- -- -- -- -- -- -- --
2017-07-29 11:00:00 23.6 9 Noroeste 15 Noroeste 0 1001.1 0.4 72
2017-07-29 10:00:00 21.4 5 Sur 30 Sudoeste 0 1001 0.2 79
2017-07-29 09:00:00 19.9 4 Sudoeste 13 Sur 0 1001 0.2 83
2017-07-29 08:00:00 18.6 5 Sudoeste 24 Sudoeste 0 1000.7 0 88
2017-07-29 07:00:00 18.6 3 Sudoeste 11 Sudoeste 0 1000.8 0 87
2017-07-29 06:00:00 19.2 6 Sudoeste 17 Sudoeste 0 1000.8 -0.4 85
2017-07-29 05:00:00 19.5 10 Sudoeste 24 Sudoeste 0 1000.7 -1 82
2017-07-29 04:00:00 19.1 15 Sur 22 Sur 0 1000.8 -1.6 85
2017-07-29 03:00:00 19.1 12 Sur 18 Sur 0 1001.2 -1.5 86
2017-07-29 02:00:00 19.3 10 Sur 15 Sur 0 1001.7 -1.5 85
2017-07-29 01:00:00 19.1 4 Sudoeste 9 Sudoeste 0 1002.4 -0.6 85
2017-07-29 00:00:00 19 5 Sudeste 13 Sudeste 0 1002.7 -0.3 87
2017-07-28 23:00:00 19.2 8 Sudeste 17 Sudeste 0 1003.2 0 86
2017-07-28 22:00:00 19.3 10 Sudeste 15 Sudeste 0 1003 -0.1 86
2017-07-28 21:00:00 20.3 6 Este 13 Este 0 1003 0 80
2017-07-28 20:00:00 21.6 4 Nordeste 17 Noroeste 0 1003.2 0.1 75
2017-07-28 19:00:00 21.7 6 Norte 17 Nordeste 0 1003.1 0 76
2017-07-28 18:00:00 21.7 8 Norte 21 Norte 0 1003 -0.2 73
2017-07-28 17:00:00 22.4 8 Norte 18 Norte 0 1003.1 -0.3 72
2017-07-28 16:00:00 22.1 7 Norte 18 Nordeste 0 1003.1 -0.3 74
2017-07-28 15:00:00 22.1 8 Norte 21 Norte 0 1003.2 0 74
2017-07-28 14:00:00 22.3 8 Norte 18 Noroeste 0 1003.4 0 71
2017-07-28 13:00:00 21.6 8 Norte 18 Norte 0 1003.4 0 75
2017-07-28 12:00:00 21.6 6 Norte 17 Noroeste 0 1003.2 0 75
2017-07-28 11:00:00 20.1 4 Noroeste 11 Noroeste 0 1003.4 0.4 81
2017-07-28 10:00:00 19.2 0 Calma 22 Sudoeste 0 1003.4 0.6 86
2017-07-28 09:00:00 17.9 3 Sudoeste 4 Sudoeste 0 1003.2 0.6 91
2017-07-28 08:00:00 17.2 3 Sur 22 Sur 0 1003 0.5 92
2017-07-28 07:00:00 16.8 2 Sur 4 Sur 0 1002.8 0.2 94
2017-07-28 06:00:00 16.9 0 Calma 4 Sudoeste 0 1002.6 -0.2 94
2017-07-28 05:00:00 16.9 0 Calma 4 Sudoeste 0 1002.5 -0.6 95
2017-07-28 04:00:00 17 0 Calma 5 Sur 0 1002.6 -0.7 95
2017-07-28 03:00:00 17 2 Sur 4 Sur 0 1002.8 -0.7 95
2017-07-28 02:00:00 17 2 Sur 5 Oeste 0 1003.1 -0.4 95
2017-07-28 01:00:00 17 0 Calma 5 Oeste 0 1003.3 0.3 96
2017-07-28 00:00:00 16.8 4 Noroeste 18 Noroeste 0 1003.5 1.2 95
2017-07-27 23:00:00 17.5 4 Noroeste 18 Noroeste 0 1003.5 1.7 93
2017-07-27 22:00:00 17.8 4 Noroeste 15 Norte 0 1003 1.1 91
2017-07-27 21:00:00 17.9 3 Norte 13 Norte 0 1002.3 0.4 94
2017-07-27 20:00:00 18.5 4 Noroeste 15 Norte 0 1001.8 -0.2 92
2017-07-27 19:00:00 18.7 4 Norte 17 Noroeste 0 1001.9 0.3 93
2017-07-27 18:00:00 18.9 9 Noroeste 17 Noroeste 0 1001.9 0.6 93
2017-07-27 17:00:00 19.4 5 Noroeste 13 Norte 0 1002 0.6 91
2017-07-27 16:00:00 19.8 7 Noroeste 18 Noroeste 0 1001.6 0.3 90
2017-07-27 15:00:00 19.9 11 Noroeste 30 Noroeste 0 1001.3 0.3 90
2017-07-27 14:00:00 21.1 15 Noroeste 26 Noroeste 0 1001.4 0.5 84
2017-07-27 13:00:00 22.6 13 Noroeste 21 Noroeste 0 1001.3 0.4 72
2017-07-27 12:00:00 22.8 11 Noroeste 17 Oeste 0 1001 0 67
2017-07-27 11:00:00 22.8 0 Calma 30 Sudoeste 0 1000.9 0.1 65
2017-07-27 10:00:00 18.8 8 Sudoeste 30 Sur 0 1000.9 0.2 82
2017-07-27 09:00:00 17.8 10 Sudoeste 17 Sudoeste 0 1001 0.7 87
2017-07-27 08:00:00 15.9 3 Sudoeste 8 Nordeste 0 1000.8 0.2 94
2017-07-27 07:00:00 15.1 0 Calma 13 Sudoeste 0 1000.7 -0.2 94
2017-07-27 06:00:00 15.1 6 Sudoeste 18 Sur 0 1000.3 -1.1 93
2017-07-27 05:00:00 15.2 12 Sudoeste 21 Sur 0 1000.6 -1 94
2017-07-27 04:00:00 15.3 8 Sudoeste 15 Sudoeste 0 1000.9 -1.3 94
2017-07-27 03:00:00 15.1 5 Sudoeste 13 Sudoeste 0 1001.4 -0.8 93
2017-07-27 02:00:00 14.8 4 Sudoeste 8 Sur 0 1001.6 -0.6 93
2017-07-27 01:00:00 15.3 4 Sudoeste 5 Sudoeste 0 1002.2 -0.1 92
2017-07-27 00:00:00 15.6 2 Sudoeste 5 Sudoeste 0 1002.2 0 91
2017-07-26 23:00:00 16.5 3 Sudoeste 5 Sudoeste 0 1002.2 -0.2 87
2017-07-26 22:00:00 18 2 Noroeste 11 Oeste 0 1002.3 -0.1 81
2017-07-26 21:00:00 18.7 5 Norte 13 Oeste 0 1002.2 -0.3 78
2017-07-26 20:00:00 19.5 8 Noroeste 17 Noroeste 0 1002.4 -0.3 75
2017-07-26 19:00:00 20.2 10 Noroeste 18 Norte 0 1002.4 -0.7 74
2017-07-26 18:00:00 20.6 9 Noroeste 22 Noroeste 0 1002.5 -0.7 72
2017-07-26 17:00:00 21.3 13 Noroeste 22 Noroeste 0 1002.7 -1 69
2017-07-26 16:00:00 21.2 12 Noroeste 22 Noroeste 0 1003.1 -0.6 69
2017-07-26 15:00:00 21.2 11 Noroeste 22 Noroeste 0 1003.2 -0.5 70
2017-07-26 14:00:00 20.8 14 Noroeste 22 Noroeste 0 1003.7 0.3 70
2017-07-26 13:00:00 20.3 12 Noroeste 18 Noroeste 0 1003.7 0.3 72
2017-07-26 12:00:00 20.1 8 Noroeste 18 Oeste 0 1003.7 0.3 70
2017-07-26 11:00:00 19.1 7 Oeste 17 Noroeste 0 1003.4 0.1 74
2017-07-26 10:00:00 17.8 6 Sudoeste 13 Sur 0 1003.4 0.2 82
2017-07-26 09:00:00 15.9 4 Sudoeste 8 Sudoeste 0 1003.4 0.2 91
2017-07-26 08:00:00 14.8 2 Sudoeste 17 Sudoeste 0 1003.3 0.1 93
2017-07-26 07:00:00 14.1 0 Calma -- -- 0 1003.2 -0.4 93
2017-07-26 06:00:00 14.5 0 Calma 4 Sudoeste 0 1003.2 -1.3 91
2017-07-26 05:00:00 15.3 3 Sudoeste 8 Sur 0 1003.2 -1.5 89
2017-07-26 04:00:00 15.9 5 Sur 8 Sur 0 1003.6 -1.4 86
2017-07-26 03:00:00 16.2 3 Oeste 5 Noroeste 0 1004.5 -1.1 87
2017-07-26 02:00:00 15.8 0 Calma 5 Oeste 0 1004.7 -1.4 87
2017-07-26 01:00:00 16.5 0 Calma 5 Sur 0 1005 -0.8 85
2017-07-26 00:00:00 16.7 0 Calma 2 Sudeste 0 1005.6 -0.5 83
2017-07-25 23:00:00 16.9 0 Calma 5 Noroeste 0 1006.1 0.2 82
2017-07-25 22:00:00 17.8 0 Calma 8 Norte 0 1005.8 -0.3 76
2017-07-25 21:00:00 19.2 4 Noroeste 13 Noroeste 0 1006.1 -0.4 71
2017-07-25 20:00:00 19 4 Noroeste 11 Norte 0 1005.9 -1 72
2017-07-25 19:00:00 19.5 5 Norte 13 Norte 0 1006.1 -0.9 71
2017-07-25 18:00:00 19.8 4 Noroeste 17 Noroeste 0 1006.5 -0.9 70
2017-07-25 17:00:00 20.8 9 Noroeste 24 Noroeste 0 1006.9 -0.7 66
2017-07-25 16:00:00 21.1 11 Noroeste 21 Noroeste 0 1007 -0.9 65
2017-07-25 15:00:00 20.5 11 Norte 22 Noroeste 0 1007.4 -0.7 66
2017-07-25 14:00:00 20.5 12 Noroeste 18 Noroeste 0 1007.6 -0.7 65
2017-07-25 13:00:00 20.3 9 Noroeste 17 Norte 0 1007.9 -0.6 65
2017-07-25 12:00:00 19.8 7 Noroeste 15 Noroeste 0 1008.1 -0.5 71
2017-07-25 11:00:00 19.2 9 Oeste 15 Oeste 0 1008.3 -- 76
2017-07-25 10:00:00 17.1 2 Sudoeste 15 Sudoeste 0 1008.5 -- 88
2017-07-25 09:00:00 16 3 Sudoeste 8 Sudoeste 0 1008.6 -- 91
2017-07-25 08:00:00 -- -- -- -- -- -- -- -- --
2017-07-25 07:00:00 -- -- -- -- -- -- -- -- --
2017-07-25 06:00:00 -- -- -- -- -- -- -- -- --
2017-07-25 05:00:00 15.9 7 Oeste 13 Sudoeste 0 1008.6 -1.4 91
2017-07-25 04:00:00 16 3 Sudoeste 8 Sudoeste 0 1008.9 -1.5 90
2017-07-25 03:00:00 16 4 Sudoeste 9 Sudoeste 0 1009.5 -1.2 91
2017-07-25 02:00:00 16.2 3 Sudoeste 15 Oeste 0 1010 -0.7 91
2017-07-25 01:00:00 16.7 9 Oeste 17 Oeste 0 1010.4 0 88
2017-07-25 00:00:00 16.7 7 Oeste 13 Oeste 0 1010.7 0.3 87
2017-07-24 23:00:00 16.7 4 Oeste 17 Oeste 0 1010.7 0.2 87
2017-07-24 22:00:00 17 11 Oeste 18 Oeste 0 1010.4 -0.1 86
2017-07-24 21:00:00 17.5 5 Oeste 21 Sudoeste 0 1010.4 -0.1 84
2017-07-24 20:00:00 17.9 9 Oeste 21 Noroeste 0 1010.5 -0.2 84
2017-07-24 19:00:00 19 12 Noroeste 18 Noroeste 0 1010.5 -0.1 85
2017-07-24 18:00:00 18.9 8 Noroeste 22 Oeste 0 1010.5 0 86
2017-07-24 17:00:00 17.8 11 Noroeste 32 Noroeste 0 1010.7 0.5 89
2017-07-24 16:00:00 18.8 12 Noroeste 33 Oeste 0.3 1010.6 0.6 91
2017-07-24 15:00:00 18.5 21 Oeste 33 Oeste 0.1 1010.5 0.6 88
2017-07-24 14:00:00 18.9 18 Noroeste 30 Noroeste 0 1010.2 0.6 85
2017-07-24 13:00:00 18.1 18 Oeste 28 Oeste 0.7 1010 0.8 92
2017-07-24 12:00:00 17.8 19 Oeste 37 Noroeste 0 1009.9 1.1 90
2017-07-24 11:00:00 18 19 Oeste 33 Oeste 0 1009.6 1.2 88
2017-07-24 10:00:00 17.1 18 Oeste 32 Oeste 0 1009.2 1.2 91
2017-07-24 09:00:00 16.7 10 Oeste 32 Oeste 0.1 1008.8 1.2 94
2017-07-24 08:00:00 16.6 22 Oeste 30 Noroeste 1.5 1008.4 0.8 97
2017-07-24 07:00:00 16.4 15 Oeste 41 Oeste 1.3 1008 0.4 97
2017-07-24 06:00:00 17 16 Oeste 32 Oeste 0 1007.6 0 95
2017-07-24 05:00:00 16.8 25 Oeste 42 Noroeste 0.2 1007.6 -0.1 97
2017-07-24 04:00:00 17.2 24 Oeste 35 Noroeste 0.3 1007.6 -0.2 96
2017-07-24 03:00:00 17.5 17 Oeste 35 Oeste 0.1 1007.6 0.1 95
2017-07-24 02:00:00 17.7 23 Oeste 39 Oeste 0.2 1007.7 0.2 96
2017-07-24 01:00:00 17.8 27 Oeste 42 Noroeste 0.5 1007.8 0.7 96
2017-07-24 00:00:00 18.4 25 Oeste 35 Oeste 0.1 1007.5 0.8 95
2017-07-23 23:00:00 18.6 24 Oeste 39 Oeste 0 1007.5 1 93
2017-07-23 22:00:00 19 23 Oeste 35 Oeste 0 1007.1 0.8 91
2017-07-23 21:00:00 19.5 21 Oeste 35 Noroeste 0 1006.7 0.6 88
2017-07-23 20:00:00 21.9 22 Oeste 33 Noroeste 0 1006.5 0 77
2017-07-23 19:00:00 20.1 21 Noroeste 32 Noroeste 0 1006.3 -0.4 82
2017-07-23 18:00:00 21.7 15 Noroeste 22 Noroeste 0 1006.1 -0.7 72
2017-07-23 17:00:00 21.6 13 Noroeste 21 Noroeste 0 1006.5 -0.6 69
2017-07-23 16:00:00 21.6 8 Noroeste 17 Noroeste 0 1006.7 0.1 66
2017-07-23 15:00:00 21.4 8 Noroeste 18 Noroeste 0 1006.8 -0.4 66
2017-07-23 14:00:00 21.8 13 Noroeste 24 Noroeste 0 1007.1 -0.2 64
2017-07-23 13:00:00 22.6 8 Norte 17 Oeste 0 1006.6 -0.8 59
2017-07-23 12:00:00 21 10 Noroeste 17 Noroeste 0 1007.2 0 62
2017-07-23 11:00:00 20.5 7 Noroeste 17 Noroeste 0 1007.3 0.6 60
2017-07-23 10:00:00 19.1 5 Sudoeste 35 Oeste 0 1007.4 0.9 69
2017-07-23 09:00:00 16.5 8 Sudoeste 17 Oeste 0 1007.2 0.9 81
2017-07-23 08:00:00 14.6 5 Sudoeste 22 Sudoeste 0 1006.7 0.5 89
2017-07-23 07:00:00 14.7 5 Sudoeste 15 Oeste 0 1006.5 0.1 80
2017-07-23 06:00:00 15.7 7 Oeste 18 Oeste 0 1006.3 -0.3 74
2017-07-23 05:00:00 16.3 11 Oeste 24 Oeste 0 1006.2 -0.5 77
2017-07-23 04:00:00 16.5 8 Oeste 18 Sudoeste 0 1006.4 -0.2 79
2017-07-23 03:00:00 16.8 6 Oeste -- -- -- 1006.6 0.1 79
2017-07-23 02:00:00 16.9 14 Oeste 26 Oeste 0 1006.7 0.4 79
2017-07-23 01:00:00 17 11 Oeste 24 Oeste 0 1006.6 1 77
2017-07-23 00:00:00 17.2 15 Oeste 24 Oeste 0 1006.5 1.3 77
2017-07-22 23:00:00 17.2 9 Oeste 21 Noroeste 0 1006.3 1.6 78
2017-07-22 22:00:00 17.5 10 Oeste 22 Oeste 0 1005.6 1.5 75
2017-07-22 21:00:00 17.8 13 Oeste 26 Oeste 0 1005.2 1.4 72
2017-07-22 20:00:00 18 11 Noroeste 26 Noroeste 0 1004.7 1.2 75
2017-07-22 19:00:00 18.6 15 Noroeste 26 Oeste 0 1004.1 0.9 72
2017-07-22 18:00:00 18.7 20 Oeste 28 Oeste 0 1003.8 0.9 73
2017-07-22 17:00:00 18.8 18 Oeste 32 Oeste 0 1003.5 0.9 75
2017-07-22 16:00:00 19.2 16 Oeste 28 Oeste 0 1003.2 1 73
2017-07-22 15:00:00 19.3 21 Oeste 30 Oeste 0 1002.9 1.1 76
2017-07-22 14:00:00 18.8 20 Oeste 28 Oeste 0 1002.6 1.2 79
2017-07-22 13:00:00 16.9 9 Oeste 26 Noroeste 0 1002.2 1.4 91
2017-07-22 12:00:00 15.7 21 Noroeste 37 Noroeste 0 1001.8 1.5 94
2017-07-22 11:00:00 16.5 15 Noroeste 32 Oeste 0.1 1001.4 1.7 90
2017-07-22 10:00:00 16.7 11 Noroeste 26 Noroeste 0 1000.8 1.5 94
2017-07-22 09:00:00 17.1 14 Noroeste 30 Noroeste 0 1000.3 1.3 90
2017-07-22 08:00:00 17.4 9 Noroeste 18 Noroeste 0 999.7 0.8 84
2017-07-22 07:00:00 17.5 6 Noroeste 17 Noroeste 0 999.3 0.2 80
2017-07-22 06:00:00 17.1 4 Oeste 13 Oeste 0 999 0 77
2017-07-22 05:00:00 16.9 4 Sudoeste 13 Sudoeste 0 998.9 0.1 77
2017-07-22 04:00:00 16.6 4 Sudoeste 15 Sudoeste 0 999.1 0 84
2017-07-22 03:00:00 16.3 7 Sudoeste -- -- -- 999 -0.2 88
2017-07-22 02:00:00 16.7 13 Sudoeste 21 Sur 0 998.8 -0.6 87
2017-07-22 01:00:00 16.7 10 Sudoeste 17 Sudoeste 0 999.1 -0.1 88
2017-07-22 00:00:00 17.1 5 Sudoeste 21 Sudoeste 0 999.2 0.2 83